Aérodrome :
LOGIN :

S'inscrire | Disclaimer

   EN    FR    IT 

 










Légende :    VFR   VFR Marginal   IFR   IFR Intensif   IFR Très Intensif
Visi : 
Plafond : 
>= 8 km
>= 3000ft
5 à 8 km
1000 à 3000 ft
1500m à 5 km
500 à 1000 ft
800 à 1500m
200 à 500 ft
< 800m
< 200 ft
Symboles :   Orages  Brouillard  Fortes neiges  Fortes précipitations  Vent > 20 kt
SIGMETs :   Divers  Orages  Givrage  Turbulence  Onde Orograph.  Cendres Volcan.







- Altitude de l'aérodrome : 580 ft
- Voir les cartes d'approche


LFOA - Avord

DERNIER METAR :
  • 291730Z AUTO 11012KT 6000 2800 NSC 16/00 Q1011

METARs EXPIRÉS :
  • 291700Z AUTO 11011KT 6000 2800 NSC 16/M00 Q1011
  • 291630Z AUTO 11012KT 6000 2900 NSC 17/M00 Q1011
  • 291600Z AUTO 11012KT 6000 2800 NSC 17/00 Q1011
  • 291530Z AUTO 13009KT 100V160 8000 3300 NSC 17/01 Q1012
  • 291500Z AUTO 12011KT 070V170 CAVOK 17/00 Q1012
  • 291430Z AUTO 14012KT 7000 3300 NSC 16/00 Q1013

Prévision TAF périmée.
Pas de NOTAMs connus pour ce terrain.



MET'MAP, la Météo Aéronautique d'un coup d'oeil ! - Copyright ORBIFLY Décembre 2007 - Disclaimer

ORBIFLY MET'MAP TEAM :

Programmation & Développement : Alexandra Zaïnal
Conception & Développement : Baudouin d'Aumeries
Co-Programmation & Développement : Marc-Olivier Méhu
Soutien technique & logistique : Manuel Goepfert

Contact : metmap@orbifly.com




SOURCES & CREDITS :

   NOAA